createdAt,value
2023-03-21T00:01:34.097Z,1018.4
2023-03-21T00:06:33.953Z,1018.4
2023-03-21T00:11:33.911Z,1018.5
2023-03-21T00:16:34.272Z,1018.4
2023-03-21T00:21:49.003Z,1018.4
2023-03-21T00:26:33.909Z,1018.4
2023-03-21T00:31:33.849Z,1018.3
2023-03-21T00:36:34.088Z,1018.3
2023-03-21T00:41:41.861Z,1018.2
2023-03-21T00:46:44.039Z,1018.2
2023-03-21T00:51:34.040Z,1018.2
2023-03-21T00:56:35.389Z,1018.2
2023-03-21T01:01:35.511Z,1018.2
2023-03-21T01:06:34.058Z,1018.3
2023-03-21T01:11:33.956Z,1018.2
2023-03-21T01:16:33.997Z,1018.1
2023-03-21T01:21:33.996Z,1018.1
2023-03-21T01:26:33.980Z,1018.1
2023-03-21T01:31:34.009Z,1018.1
2023-03-21T01:36:33.910Z,1018.2
2023-03-21T01:41:42.559Z,1018.2
2023-03-21T01:46:44.067Z,1018.1
2023-03-21T01:51:34.037Z,1018.0
2023-03-21T01:56:33.948Z,1018.0
2023-03-21T02:01:33.725Z,1018.0
2023-03-21T02:06:33.692Z,1018.0
2023-03-21T02:11:33.662Z,1018.0
2023-03-21T02:16:33.841Z,1017.9
2023-03-21T02:21:34.042Z,1018.0
2023-03-21T02:26:41.905Z,1018.0
2023-03-21T02:31:34.891Z,1018.0
2023-03-21T02:36:33.849Z,1018.1
2023-03-21T02:41:40.165Z,1018.0
2023-03-21T02:46:43.889Z,1018.0
2023-03-21T02:51:33.763Z,1018.1
2023-03-21T02:56:34.398Z,1018.1
2023-03-21T03:01:33.730Z,1018.2
2023-03-21T03:06:33.596Z,1018.1
2023-03-21T03:11:34.160Z,1018.1
2023-03-21T03:16:33.580Z,1018.0
2023-03-21T03:21:33.638Z,1018.0
2023-03-21T03:26:34.341Z,1018.0
2023-03-21T03:31:34.347Z,1018.0
2023-03-21T03:36:34.366Z,1017.9
2023-03-21T03:42:00.878Z,1017.9
2023-03-21T03:46:33.714Z,1017.9
2023-03-21T03:51:34.209Z,1018.0
2023-03-21T03:56:34.278Z,1018.0
2023-03-21T04:01:33.657Z,1018.1
2023-03-21T04:06:33.587Z,1018.0
2023-03-21T04:11:33.677Z,1018.1
2023-03-21T04:16:35.633Z,1018.1
2023-03-21T04:21:33.550Z,1018.0
2023-03-21T04:26:33.671Z,1018.1
2023-03-21T04:31:33.452Z,1018.0
2023-03-21T04:36:33.546Z,1018.0
2023-03-21T04:41:33.692Z,1017.9
2023-03-21T04:46:33.547Z,1018.0
2023-03-21T04:51:33.347Z,1018.0
2023-03-21T04:56:33.552Z,1017.9
2023-03-21T05:01:33.591Z,1017.9
2023-03-21T05:06:33.618Z,1017.8
2023-03-21T05:11:33.416Z,1018.0
2023-03-21T05:16:33.605Z,1017.9
2023-03-21T05:21:33.615Z,1017.8
2023-03-21T05:26:33.455Z,1017.9
2023-03-21T05:31:33.497Z,1017.9
2023-03-21T05:36:33.551Z,1018.0
2023-03-21T05:41:33.383Z,1018.1
2023-03-21T05:46:33.658Z,1018.0
2023-03-21T05:51:33.422Z,1018.1
2023-03-21T05:56:33.292Z,1018.1
2023-03-21T06:01:33.336Z,1018.2
2023-03-21T06:06:33.525Z,1018.2
2023-03-21T06:11:34.645Z,1018.2
2023-03-21T06:16:33.303Z,1018.2
2023-03-21T06:21:33.346Z,1018.2
2023-03-21T06:26:33.260Z,1018.1
2023-03-21T06:31:33.294Z,1018.3
2023-03-21T06:36:33.347Z,1018.2
2023-03-21T06:41:33.260Z,1018.2
2023-03-21T06:46:33.299Z,1018.3
2023-03-21T06:51:33.492Z,1018.3
2023-03-21T06:56:33.354Z,1018.4
2023-03-21T07:01:33.219Z,1018.4
2023-03-21T07:06:33.382Z,1018.4
2023-03-21T07:11:33.200Z,1018.5
2023-03-21T07:16:33.269Z,1018.5
2023-03-21T07:21:33.940Z,1018.6
2023-03-21T07:26:33.212Z,1018.6
2023-03-21T07:31:33.180Z,1018.5
2023-03-21T07:36:33.260Z,1018.6
2023-03-21T07:41:33.109Z,1018.6
2023-03-21T07:46:33.160Z,1018.6
2023-03-21T07:51:33.187Z,1018.7
2023-03-21T07:56:33.142Z,1018.6
2023-03-21T08:01:43.979Z,1018.7
2023-03-21T08:06:33.270Z,1018.6
2023-03-21T08:11:33.195Z,1018.7
2023-03-21T08:16:33.205Z,1018.7
2023-03-21T08:21:33.286Z,1018.7
2023-03-21T08:26:33.229Z,1018.8
2023-03-21T08:31:33.133Z,1018.8
2023-03-21T08:36:33.231Z,1018.8
2023-03-21T08:41:33.110Z,1018.7
2023-03-21T08:46:33.183Z,1018.8
2023-03-21T08:51:33.156Z,1018.8
2023-03-21T08:56:33.031Z,1018.9
2023-03-21T09:01:33.215Z,1018.9
2023-03-21T09:06:33.264Z,1019.0
2023-03-21T09:11:33.091Z,1019.0
2023-03-21T09:16:33.023Z,1019.1
2023-03-21T09:21:33.152Z,1019.0
2023-03-21T09:26:32.933Z,1019.0
2023-03-21T09:31:32.979Z,1019.0
2023-03-21T09:36:33.236Z,1019.1
2023-03-21T09:41:32.972Z,1019.2
2023-03-21T09:46:32.982Z,1019.2
2023-03-21T09:51:33.259Z,1019.2
2023-03-21T09:56:33.039Z,1019.3
2023-03-21T10:01:33.155Z,1019.3
2023-03-21T10:06:33.103Z,1019.2
2023-03-21T10:11:32.968Z,1019.2
2023-03-21T10:16:33.195Z,1019.2
2023-03-21T10:21:51.729Z,1019.2
2023-03-21T10:26:33.170Z,1019.2
2023-03-21T10:31:32.960Z,1019.2
2023-03-21T10:36:33.057Z,1019.3
2023-03-21T10:41:32.927Z,1019.2
2023-03-21T10:46:35.841Z,1019.3
2023-03-21T10:51:33.020Z,1019.3
2023-03-21T10:56:32.804Z,1019.3
2023-03-21T11:01:32.913Z,1019.3
2023-03-21T11:06:32.841Z,1019.2
2023-03-21T11:11:32.889Z,1019.2
2023-03-21T11:16:32.929Z,1019.2
2023-03-21T11:21:33.130Z,1019.2
2023-03-21T11:26:33.092Z,1019.3
2023-03-21T11:31:32.773Z,1019.1
2023-03-21T11:36:32.776Z,1019.1
2023-03-21T11:41:32.920Z,1019.1
2023-03-21T11:46:32.865Z,1019.1
2023-03-21T11:51:33.086Z,1019.0
2023-03-21T11:56:32.985Z,1019.1
2023-03-21T12:01:32.833Z,1019.1
2023-03-21T12:06:32.807Z,1019.1
2023-03-21T12:11:32.914Z,1019.0
2023-03-21T12:16:32.785Z,1019.0
2023-03-21T12:21:32.765Z,1019.0
2023-03-21T12:26:32.884Z,1019.0
2023-03-21T12:31:32.820Z,1018.9
2023-03-21T12:36:32.694Z,1018.9
2023-03-21T12:41:32.853Z,1018.9
2023-03-21T12:46:32.756Z,1018.8
2023-03-21T12:51:32.687Z,1018.9
2023-03-21T12:56:32.855Z,1018.7
2023-03-21T13:01:32.676Z,1018.7
2023-03-21T13:06:33.005Z,1018.6
2023-03-21T13:11:32.869Z,1018.6
2023-03-21T13:16:32.704Z,1018.7
2023-03-21T13:21:32.649Z,1018.6
2023-03-21T13:26:32.997Z,1018.6
2023-03-21T13:31:48.877Z,1018.5
2023-03-21T13:36:34.588Z,1018.5
2023-03-21T13:41:32.579Z,1018.5
2023-03-21T13:46:38.141Z,1018.5
2023-03-21T13:51:32.890Z,1018.5
2023-03-21T13:56:32.608Z,1018.5
2023-03-21T14:01:32.627Z,1018.5
2023-03-21T14:06:32.676Z,1018.5
2023-03-21T14:11:32.948Z,1018.5
2023-03-21T14:16:32.595Z,1018.4
2023-03-21T14:21:32.526Z,1018.3
2023-03-21T14:26:32.887Z,1018.3
2023-03-21T14:31:32.574Z,1018.3
2023-03-21T14:36:33.091Z,1018.3
2023-03-21T14:41:32.553Z,1018.2
2023-03-21T14:46:32.461Z,1018.3
2023-03-21T14:51:32.593Z,1018.3
2023-03-21T14:56:32.447Z,1018.2
2023-03-21T15:01:32.964Z,1018.2
2023-03-21T15:06:32.544Z,1018.2
2023-03-21T15:11:32.447Z,1018.2
2023-03-21T15:16:33.198Z,1018.1
2023-03-21T15:21:32.707Z,1018.3
2023-03-21T15:26:32.473Z,1018.3
2023-03-21T15:31:32.506Z,1018.2
2023-03-21T15:36:33.962Z,1018.2
2023-03-21T15:41:32.609Z,1018.2
2023-03-21T15:46:32.567Z,1018.1
2023-03-21T15:51:32.270Z,1018.1
2023-03-21T15:56:32.438Z,1018.1
2023-03-21T16:01:32.516Z,1018.0
2023-03-21T16:06:32.479Z,1017.9
2023-03-21T16:11:32.368Z,1018.0
2023-03-21T16:16:32.413Z,1018.0
2023-03-21T16:21:32.533Z,1017.9
2023-03-21T16:26:32.290Z,1018.0
2023-03-21T16:31:32.320Z,1018.0
2023-03-21T16:36:32.399Z,1018.1
2023-03-21T16:41:32.913Z,1018.1
2023-03-21T16:46:33.041Z,1018.2
2023-03-21T16:51:32.335Z,1018.2
2023-03-21T16:56:32.269Z,1018.2
2023-03-21T17:01:33.557Z,1018.3
2023-03-21T17:06:32.231Z,1018.3
2023-03-21T17:11:32.199Z,1018.3
2023-03-21T17:16:32.478Z,1018.4
2023-03-21T17:21:32.199Z,1018.4
2023-03-21T17:26:32.135Z,1018.4
2023-03-21T17:31:32.366Z,1018.4
2023-03-21T17:36:32.301Z,1018.5
2023-03-21T17:41:32.139Z,1018.5
2023-03-21T17:46:32.504Z,1018.6
2023-03-21T17:51:33.806Z,1018.6
2023-03-21T17:56:32.121Z,1018.5
2023-03-21T18:01:32.204Z,1018.6
2023-03-21T18:06:32.558Z,1018.6
2023-03-21T18:11:32.134Z,1018.6
2023-03-21T18:16:32.152Z,1018.6
2023-03-21T18:21:33.156Z,1018.6
2023-03-21T18:26:32.869Z,1018.6
2023-03-21T18:31:32.936Z,1018.6
2023-03-21T18:36:33.639Z,1018.7
2023-03-21T18:41:32.957Z,1018.6
2023-03-21T18:46:32.870Z,1018.5
2023-03-21T18:51:32.810Z,1018.5
2023-03-21T18:57:27.305Z,1018.6
2023-03-21T19:01:32.388Z,1018.6
2023-03-21T19:06:32.220Z,1018.6
2023-03-21T19:11:32.554Z,1018.6
2023-03-21T19:16:45.253Z,1018.6
2023-03-21T19:21:34.714Z,1018.6
2023-03-21T19:26:32.253Z,1018.7
2023-03-21T19:31:32.743Z,1018.8
2023-03-21T19:36:34.597Z,1018.7
2023-03-21T19:41:31.928Z,1018.7
2023-03-21T19:46:32.888Z,1018.7
2023-03-21T19:51:33.718Z,1018.7
2023-03-21T19:56:32.313Z,1018.7
2023-03-21T20:01:32.364Z,1018.8
2023-03-21T20:06:32.111Z,1018.7
2023-03-21T20:11:32.019Z,1018.6
2023-03-21T20:16:35.028Z,1018.7
2023-03-21T20:21:40.242Z,1018.6
2023-03-21T20:26:32.021Z,1018.7
2023-03-21T20:31:32.177Z,1018.7
2023-03-21T20:36:40.051Z,1018.7
2023-03-21T20:41:31.890Z,1018.7
2023-03-21T20:46:32.585Z,1018.7
2023-03-21T20:52:29.560Z,1018.8
2023-03-21T20:56:32.759Z,1018.8
2023-03-21T21:01:32.603Z,1018.8
2023-03-21T21:06:32.483Z,1018.7
2023-03-21T21:12:05.508Z,1018.6
2023-03-21T21:16:32.731Z,1018.7
2023-03-21T21:21:32.477Z,1018.6
2023-03-21T21:26:32.655Z,1018.6
2023-03-21T21:31:32.573Z,1018.6
2023-03-21T21:36:32.582Z,1018.6
2023-03-21T21:41:32.502Z,1018.5
2023-03-21T21:46:32.503Z,1018.6
2023-03-21T21:51:32.435Z,1018.6
2023-03-21T21:56:32.591Z,1018.6
2023-03-21T22:01:32.397Z,1018.5
2023-03-21T22:06:32.453Z,1018.5
2023-03-21T22:11:32.539Z,1018.5
2023-03-21T22:16:32.456Z,1018.5
2023-03-21T22:21:32.420Z,1018.6
2023-03-21T22:26:32.479Z,1018.6
2023-03-21T22:31:31.797Z,1018.5
2023-03-21T22:36:31.707Z,1018.6
2023-03-21T22:41:32.448Z,1018.5
2023-03-21T22:46:31.806Z,1018.5
2023-03-21T22:51:31.914Z,1018.5
2023-03-21T22:56:31.876Z,1018.4
2023-03-21T23:01:32.371Z,1018.4
2023-03-21T23:06:32.398Z,1018.5
2023-03-21T23:11:32.373Z,1018.4
2023-03-21T23:16:32.326Z,1018.2
2023-03-21T23:21:33.478Z,1018.2
2023-03-21T23:26:31.635Z,1018.0
2023-03-21T23:31:31.680Z,1018.0
2023-03-21T23:36:32.576Z,1018.0
2023-03-21T23:41:32.519Z,1017.9
2023-03-21T23:46:32.397Z,1017.9
2023-03-21T23:51:32.288Z,1018.0
2023-03-21T23:56:32.465Z,1018.0
